sensor_id;sensor_type;location;lat;lon;timestamp;P1;P2;P0
31163;PMS5003;17796;49.296;-117.656;2022-07-06T00:11:45;2;2;
31163;PMS5003;17796;49.296;-117.656;2022-07-06T00:26:49;4;2;
31163;PMS5003;17796;49.296;-117.656;2022-07-06T00:41:53;2;2;
31163;PMS5003;17796;49.296;-117.656;2022-07-06T00:56:57;4;4;
31163;PMS5003;17796;49.296;-117.656;2022-07-06T01:12:02;3;3;
31163;PMS5003;17796;49.296;-117.656;2022-07-06T01:27:06;3;3;
31163;PMS5003;17796;49.296;-117.656;2022-07-06T01:42:10;4;2;
31163;PMS5003;17796;49.296;-117.656;2022-07-06T01:57:13;12;10;
31163;PMS5003;17796;49.296;-117.656;2022-07-06T02:12:17;4;3;
31163;PMS5003;17796;49.296;-117.656;2022-07-06T02:27:21;6;5;
31163;PMS5003;17796;49.296;-117.656;2022-07-06T02:42:24;4;3;
31163;PMS5003;17796;49.296;-117.656;2022-07-06T02:57:28;3;3;
31163;PMS5003;17796;49.296;-117.656;2022-07-06T03:12:32;3;2;
31163;PMS5003;17796;49.296;-117.656;2022-07-06T03:27:36;4;4;
31163;PMS5003;17796;49.296;-117.656;2022-07-06T03:42:39;4;4;
31163;PMS5003;17796;49.296;-117.656;2022-07-06T03:57:43;4;4;
31163;PMS5003;17796;49.296;-117.656;2022-07-06T04:12:47;4;4;
31163;PMS5003;17796;49.296;-117.656;2022-07-06T04:27:51;3;3;
31163;PMS5003;17796;49.296;-117.656;2022-07-06T04:42:54;6;6;
31163;PMS5003;17796;49.296;-117.656;2022-07-06T04:57:58;5;2;
31163;PMS5003;17796;49.296;-117.656;2022-07-06T05:13:02;3;3;
31163;PMS5003;17796;49.296;-117.656;2022-07-06T05:28:06;3;3;
31163;PMS5003;17796;49.296;-117.656;2022-07-06T05:43:09;4;2;
31163;PMS5003;17796;49.296;-117.656;2022-07-06T05:58:13;2;2;
31163;PMS5003;17796;49.296;-117.656;2022-07-06T06:13:17;1;1;
31163;PMS5003;17796;49.296;-117.656;2022-07-06T06:28:21;0;0;
31163;PMS5003;17796;49.296;-117.656;2022-07-06T06:43:24;0;0;
31163;PMS5003;17796;49.296;-117.656;2022-07-06T06:58:28;0;0;
31163;PMS5003;17796;49.296;-117.656;2022-07-06T07:13:32;0;0;
31163;PMS5003;17796;49.296;-117.656;2022-07-06T07:28:36;1;0;
31163;PMS5003;17796;49.296;-117.656;2022-07-06T07:43:40;2;2;
31163;PMS5003;17796;49.296;-117.656;2022-07-06T07:58:44;1;1;
31163;PMS5003;17796;49.296;-117.656;2022-07-06T08:13:47;3;3;
31163;PMS5003;17796;49.296;-117.656;2022-07-06T08:28:53;2;2;
31163;PMS5003;17796;49.296;-117.656;2022-07-06T08:43:56;3;3;
31163;PMS5003;17796;49.296;-117.656;2022-07-06T08:59:00;2;2;
31163;PMS5003;17796;49.296;-117.656;2022-07-06T09:14:04;1;1;
31163;PMS5003;17796;49.296;-117.656;2022-07-06T09:29:07;3;3;
31163;PMS5003;17796;49.296;-117.656;2022-07-06T09:44:11;5;5;
31163;PMS5003;17796;49.296;-117.656;2022-07-06T09:59:17;3;2;
31163;PMS5003;17796;49.296;-117.656;2022-07-06T10:14:23;3;3;
31163;PMS5003;17796;49.296;-117.656;2022-07-06T10:29:26;2;2;
31163;PMS5003;17796;49.296;-117.656;2022-07-06T10:44:30;3;3;
31163;PMS5003;17796;49.296;-117.656;2022-07-06T10:59:34;9;9;
31163;PMS5003;17796;49.296;-117.656;2022-07-06T11:14:38;2;2;
31163;PMS5003;17796;49.296;-117.656;2022-07-06T11:29:42;5;5;
31163;PMS5003;17796;49.296;-117.656;2022-07-06T11:44:46;5;5;
31163;PMS5003;17796;49.296;-117.656;2022-07-06T11:59:51;8;7;
31163;PMS5003;17796;49.296;-117.656;2022-07-06T12:14:55;9;9;
31163;PMS5003;17796;49.296;-117.656;2022-07-06T12:30:09;11;9;
31163;PMS5003;17796;49.296;-117.656;2022-07-06T12:45:13;11;9;
31163;PMS5003;17796;49.296;-117.656;2022-07-06T13:00:17;13;10;
31163;PMS5003;17796;49.296;-117.656;2022-07-06T13:15:21;7;7;
31163;PMS5003;17796;49.296;-117.656;2022-07-06T13:30:25;11;10;
31163;PMS5003;17796;49.296;-117.656;2022-07-06T13:45:28;7;7;
31163;PMS5003;17796;49.296;-117.656;2022-07-06T14:00:32;6;6;
31163;PMS5003;17796;49.296;-117.656;2022-07-06T14:15:36;7;7;
31163;PMS5003;17796;49.296;-117.656;2022-07-06T14:30:41;8;8;
31163;PMS5003;17796;49.296;-117.656;2022-07-06T14:45:45;7;5;
31163;PMS5003;17796;49.296;-117.656;2022-07-06T15:00:49;16;16;
31163;PMS5003;17796;49.296;-117.656;2022-07-06T15:15:53;10;8;
31163;PMS5003;17796;49.296;-117.656;2022-07-06T15:30:57;9;7;
31163;PMS5003;17796;49.296;-117.656;2022-07-06T15:46:02;3;3;
31163;PMS5003;17796;49.296;-117.656;2022-07-06T16:01:06;9;8;
31163;PMS5003;17796;49.296;-117.656;2022-07-06T16:16:11;9;9;
31163;PMS5003;17796;49.296;-117.656;2022-07-06T16:31:15;7;6;
31163;PMS5003;17796;49.296;-117.656;2022-07-06T16:46:20;10;9;
31163;PMS5003;17796;49.296;-117.656;2022-07-06T17:01:24;7;7;
31163;PMS5003;17796;49.296;-117.656;2022-07-06T17:16:28;8;6;
31163;PMS5003;17796;49.296;-117.656;2022-07-06T17:31:31;8;6;
31163;PMS5003;17796;49.296;-117.656;2022-07-06T17:46:35;7;7;
31163;PMS5003;17796;49.296;-117.656;2022-07-06T18:01:39;7;7;
31163;PMS5003;17796;49.296;-117.656;2022-07-06T18:16:43;3;3;
31163;PMS5003;17796;49.296;-117.656;2022-07-06T18:31:47;7;7;
31163;PMS5003;17796;49.296;-117.656;2022-07-06T18:46:51;8;8;
31163;PMS5003;17796;49.296;-117.656;2022-07-06T19:01:54;14;11;
31163;PMS5003;17796;49.296;-117.656;2022-07-06T19:16:58;10;9;
31163;PMS5003;17796;49.296;-117.656;2022-07-06T19:32:02;8;7;
31163;PMS5003;17796;49.296;-117.656;2022-07-06T19:47:06;10;9;
31163;PMS5003;17796;49.296;-117.656;2022-07-06T20:02:10;9;7;
31163;PMS5003;17796;49.296;-117.656;2022-07-06T20:17:14;9;9;
31163;PMS5003;17796;49.296;-117.656;2022-07-06T20:32:18;8;8;
31163;PMS5003;17796;49.296;-117.656;2022-07-06T20:47:22;10;9;
31163;PMS5003;17796;49.296;-117.656;2022-07-06T21:02:26;10;9;
31163;PMS5003;17796;49.296;-117.656;2022-07-06T21:17:30;11;9;
31163;PMS5003;17796;49.296;-117.656;2022-07-06T21:32:34;10;10;
31163;PMS5003;17796;49.296;-117.656;2022-07-06T21:47:39;6;5;
31163;PMS5003;17796;49.296;-117.656;2022-07-06T22:02:43;7;7;
31163;PMS5003;17796;49.296;-117.656;2022-07-06T22:17:47;10;8;
31163;PMS5003;17796;49.296;-117.656;2022-07-06T22:32:51;6;6;
31163;PMS5003;17796;49.296;-117.656;2022-07-06T22:47:54;9;8;
31163;PMS5003;17796;49.296;-117.656;2022-07-06T23:02:58;8;8;
31163;PMS5003;17796;49.296;-117.656;2022-07-06T23:18:04;9;7;
31163;PMS5003;17796;49.296;-117.656;2022-07-06T23:33:08;6;5;
31163;PMS5003;17796;49.296;-117.656;2022-07-06T23:48:12;9;8;
